首页
METAR-TAF:

METAR-TAF

机场 :

蒙特利尔皮埃尔·埃利奥特·特鲁多国际机场

蒙特利尔特鲁多, 魁北克, 加拿大

纬度: 45-28N, 经度: 073-45W, 海拔: 31米

当前天气观测

该预报发布于40分钟前的21:00 UTC
风速5节,风向南转西南,在南转南东西南之间变化
温度 6°C
湿度 45%
气压 1019 hPa
能見度: 24.1公里
散云层高于7800英尺
多云层高于10000英尺
多云层高于24000英尺

METAR: CYUL 222100Z 21005KT 160V220 15SM SCT078 BKN100 BKN240 06/M05 A3010 RMK AC4AC1CI1 SLP194

时间: 17:40 (21:40 UTC)

预报

该预报发布于1小时和2分钟前的20:38 UTC
预报有效从22日的 21点(UTC)到 23日的 18点(UTC)
风速5节,风向南转西南
能見度: 10公里
多云层高于5000英尺
短暂存在
从 22日的 22点(UTC)到 23日的 02点(UTC)
能見度: 10公里
小阵雨
成为
从 22日的 22点(UTC)到 22日的 24点(UTC)
风速8节,风向东南
从 23日的 0300点(UTC)
风速6节,风向东转东南
能見度: 10公里
散云层高于2000英尺
多云层高于6000英尺
短暂存在
从 23日的 03点(UTC)到 23日的 06点(UTC)
多云层高于2000英尺
多云层高于6000英尺
从 23日的 0600点(UTC)
风速8节,风向东转东北
能見度: 10公里
散云层高于800英尺
阴天层高于1200英尺
从 23日的 0900点(UTC)
风速8节,风向东转东北
能見度: 10公里
多云层高于700英尺
阴天层高于1000英尺
从 23日的 1500点(UTC)
风速12节,风向东北
能見度: 9.7公里
阴天层高于600英尺
小阵雨, 轻雾

TAF: CYUL 222038Z 2221/2318 20005KT P6SM BKN050 TEMPO 2222/2302 P6SM -SHRA BECMG 2222/2224 14008KT FM230300 12006KT P6SM SCT020 BKN060 TEMPO 2303/2306 BKN020 BKN060 FM230600 07008KT P6SM SCT008 OVC012 FM230900 06008KT P6SM BKN007 OVC010 FM231500 05012KT 6SM -SHRA BR OVC006 RMK NXT FCST BY 230000Z

超过4000个机场的气象观测和天气预报(METAR&TAF报告)。

可查询的气象台以黄色和红色小点在地图上表示。

将鼠标移到小点上方,可查看气象台名称。

然后点击查看天气观测和预报。

如需切换地图:点击带黑十字的绿色按钮放大地图;点击带横线的绿色按钮缩小地图;或者点击绿色箭头查看邻近地区的地图。


METAR-TAF: